sensor_id;sensor_type;location;lat;lon;timestamp;P1;durP1;ratioP1;P2;durP2;ratioP2
28834;SDS011;15969;51.536;11.884;2023-03-29T00:01:55;5.30;;;3.80;;
28834;SDS011;15969;51.536;11.884;2023-03-29T00:04:21;8.17;;;3.80;;
28834;SDS011;15969;51.536;11.884;2023-03-29T00:06:47;10.23;;;3.77;;
28834;SDS011;15969;51.536;11.884;2023-03-29T00:09:14;5.37;;;3.43;;
28834;SDS011;15969;51.536;11.884;2023-03-29T00:11:40;8.43;;;3.80;;
28834;SDS011;15969;51.536;11.884;2023-03-29T00:14:06;5.67;;;3.40;;
28834;SDS011;15969;51.536;11.884;2023-03-29T00:16:32;6.93;;;3.83;;
28834;SDS011;15969;51.536;11.884;2023-03-29T00:18:58;4.70;;;3.53;;
28834;SDS011;15969;51.536;11.884;2023-03-29T00:21:24;5.27;;;3.60;;
28834;SDS011;15969;51.536;11.884;2023-03-29T00:23:49;5.07;;;3.50;;
28834;SDS011;15969;51.536;11.884;2023-03-29T00:26:15;5.53;;;3.20;;
28834;SDS011;15969;51.536;11.884;2023-03-29T00:28:41;7.57;;;3.27;;
28834;SDS011;15969;51.536;11.884;2023-03-29T00:31:08;6.33;;;3.70;;
28834;SDS011;15969;51.536;11.884;2023-03-29T00:33:37;7.47;;;4.00;;
28834;SDS011;15969;51.536;11.884;2023-03-29T00:36:03;6.23;;;3.67;;
28834;SDS011;15969;51.536;11.884;2023-03-29T00:38:31;7.53;;;3.80;;
28834;SDS011;15969;51.536;11.884;2023-03-29T00:40:57;9.07;;;3.87;;
28834;SDS011;15969;51.536;11.884;2023-03-29T00:43:23;8.10;;;3.90;;
28834;SDS011;15969;51.536;11.884;2023-03-29T00:45:49;7.13;;;4.20;;
28834;SDS011;15969;51.536;11.884;2023-03-29T00:48:16;8.40;;;4.57;;
28834;SDS011;15969;51.536;11.884;2023-03-29T00:50:47;6.40;;;3.70;;
28834;SDS011;15969;51.536;11.884;2023-03-29T00:53:20;8.63;;;4.13;;
28834;SDS011;15969;51.536;11.884;2023-03-29T00:55:57;8.70;;;4.30;;
28834;SDS011;15969;51.536;11.884;2023-03-29T00:58:52;11.60;;;4.63;;
28834;SDS011;15969;51.536;11.884;2023-03-29T01:01:28;7.33;;;4.20;;
28834;SDS011;15969;51.536;11.884;2023-03-29T01:04:03;9.20;;;4.90;;
28834;SDS011;15969;51.536;11.884;2023-03-29T01:06:41;9.23;;;4.43;;
28834;SDS011;15969;51.536;11.884;2023-03-29T01:09:33;10.77;;;4.40;;
28834;SDS011;15969;51.536;11.884;2023-03-29T01:12:03;9.47;;;5.30;;
28834;SDS011;15969;51.536;11.884;2023-03-29T01:14:41;9.70;;;5.00;;
28834;SDS011;15969;51.536;11.884;2023-03-29T01:17:14;8.77;;;5.50;;
28834;SDS011;15969;51.536;11.884;2023-03-29T01:19:44;10.60;;;4.87;;
28834;SDS011;15969;51.536;11.884;2023-03-29T01:27:53;8.70;;;5.23;;
28834;SDS011;15969;51.536;11.884;2023-03-29T01:30:30;10.70;;;5.17;;
28834;SDS011;15969;51.536;11.884;2023-03-29T01:33:09;10.27;;;5.83;;
28834;SDS011;15969;51.536;11.884;2023-03-29T01:35:47;9.67;;;5.50;;
28834;SDS011;15969;51.536;11.884;2023-03-29T01:38:29;8.00;;;5.60;;
28834;SDS011;15969;51.536;11.884;2023-03-29T01:41:06;9.40;;;5.87;;
28834;SDS011;15969;51.536;11.884;2023-03-29T01:43:38;10.63;;;5.40;;
28834;SDS011;15969;51.536;11.884;2023-03-29T01:46:26;11.53;;;5.33;;
28834;SDS011;15969;51.536;11.884;2023-03-29T01:49:06;12.97;;;5.80;;
28834;SDS011;15969;51.536;11.884;2023-03-29T01:51:41;10.10;;;4.83;;
28834;SDS011;15969;51.536;11.884;2023-03-29T01:54:21;7.37;;;5.23;;
28834;SDS011;15969;51.536;11.884;2023-03-29T01:57:04;12.37;;;5.50;;
28834;SDS011;15969;51.536;11.884;2023-03-29T01:59:34;9.03;;;5.90;;
28834;SDS011;15969;51.536;11.884;2023-03-29T02:02:06;8.50;;;5.23;;
28834;SDS011;15969;51.536;11.884;2023-03-29T02:04:38;8.77;;;5.27;;
28834;SDS011;15969;51.536;11.884;2023-03-29T02:07:12;8.23;;;4.83;;
28834;SDS011;15969;51.536;11.884;2023-03-29T02:09:41;13.23;;;5.87;;
28834;SDS011;15969;51.536;11.884;2023-03-29T02:12:09;11.07;;;5.17;;
28834;SDS011;15969;51.536;11.884;2023-03-29T02:14:35;8.27;;;4.73;;
28834;SDS011;15969;51.536;11.884;2023-03-29T02:17:12;8.23;;;5.03;;
28834;SDS011;15969;51.536;11.884;2023-03-29T02:19:40;7.47;;;4.73;;
28834;SDS011;15969;51.536;11.884;2023-03-29T02:22:07;8.53;;;4.20;;
28834;SDS011;15969;51.536;11.884;2023-03-29T02:24:34;10.07;;;4.77;;
28834;SDS011;15969;51.536;11.884;2023-03-29T02:27:03;7.73;;;4.97;;
28834;SDS011;15969;51.536;11.884;2023-03-29T02:29:29;9.53;;;4.93;;
28834;SDS011;15969;51.536;11.884;2023-03-29T02:32:14;8.93;;;4.97;;
28834;SDS011;15969;51.536;11.884;2023-03-29T02:34:56;10.80;;;4.90;;
28834;SDS011;15969;51.536;11.884;2023-03-29T02:37:37;9.33;;;5.10;;
28834;SDS011;15969;51.536;11.884;2023-03-29T02:40:07;8.40;;;5.07;;
28834;SDS011;15969;51.536;11.884;2023-03-29T02:42:37;8.07;;;5.13;;
28834;SDS011;15969;51.536;11.884;2023-03-29T02:45:04;10.07;;;4.50;;
28834;SDS011;15969;51.536;11.884;2023-03-29T02:47:34;6.73;;;3.53;;
28834;SDS011;15969;51.536;11.884;2023-03-29T02:50:12;6.83;;;3.90;;
28834;SDS011;15969;51.536;11.884;2023-03-29T02:52:39;8.27;;;4.00;;
28834;SDS011;15969;51.536;11.884;2023-03-29T02:55:11;18.63;;;3.97;;
28834;SDS011;15969;51.536;11.884;2023-03-29T02:57:41;9.73;;;4.53;;
28834;SDS011;15969;51.536;11.884;2023-03-29T03:00:08;8.60;;;4.40;;
28834;SDS011;15969;51.536;11.884;2023-03-29T03:02:35;8.23;;;4.33;;
28834;SDS011;15969;51.536;11.884;2023-03-29T03:05:02;8.80;;;3.90;;
28834;SDS011;15969;51.536;11.884;2023-03-29T03:07:29;6.73;;;4.43;;
28834;SDS011;15969;51.536;11.884;2023-03-29T03:09:55;8.00;;;4.13;;
28834;SDS011;15969;51.536;11.884;2023-03-29T03:12:21;8.27;;;4.40;;
28834;SDS011;15969;51.536;11.884;2023-03-29T03:14:47;6.10;;;3.83;;
28834;SDS011;15969;51.536;11.884;2023-03-29T03:17:13;7.20;;;4.00;;
28834;SDS011;15969;51.536;11.884;2023-03-29T03:19:39;7.50;;;3.77;;
28834;SDS011;15969;51.536;11.884;2023-03-29T03:22:04;6.50;;;3.73;;
28834;SDS011;15969;51.536;11.884;2023-03-29T03:24:31;6.23;;;3.77;;
28834;SDS011;15969;51.536;11.884;2023-03-29T03:26:57;5.60;;;3.73;;
28834;SDS011;15969;51.536;11.884;2023-03-29T03:29:23;8.30;;;4.47;;
28834;SDS011;15969;51.536;11.884;2023-03-29T03:31:50;8.80;;;4.17;;
28834;SDS011;15969;51.536;11.884;2023-03-29T03:34:16;5.83;;;3.53;;
28834;SDS011;15969;51.536;11.884;2023-03-29T03:36:43;5.70;;;3.90;;
28834;SDS011;15969;51.536;11.884;2023-03-29T03:39:11;5.47;;;3.53;;
28834;SDS011;15969;51.536;11.884;2023-03-29T03:41:37;6.03;;;3.83;;
28834;SDS011;15969;51.536;11.884;2023-03-29T03:44:03;5.20;;;3.60;;
28834;SDS011;15969;51.536;11.884;2023-03-29T03:46:29;9.17;;;3.77;;
28834;SDS011;15969;51.536;11.884;2023-03-29T03:48:55;7.07;;;4.00;;
28834;SDS011;15969;51.536;11.884;2023-03-29T03:51:21;4.53;;;3.30;;
28834;SDS011;15969;51.536;11.884;2023-03-29T03:53:47;8.67;;;3.73;;
28834;SDS011;15969;51.536;11.884;2023-03-29T03:56:13;6.77;;;3.47;;
28834;SDS011;15969;51.536;11.884;2023-03-29T03:58:40;5.07;;;3.53;;
28834;SDS011;15969;51.536;11.884;2023-03-29T04:01:05;5.70;;;3.30;;
28834;SDS011;15969;51.536;11.884;2023-03-29T04:03:32;6.97;;;4.60;;
28834;SDS011;15969;51.536;11.884;2023-03-29T04:05:59;9.97;;;6.67;;
28834;SDS011;15969;51.536;11.884;2023-03-29T04:08:25;5.67;;;3.37;;
28834;SDS011;15969;51.536;11.884;2023-03-29T04:10:51;5.57;;;3.30;;
28834;SDS011;15969;51.536;11.884;2023-03-29T04:13:19;5.00;;;3.20;;
28834;SDS011;15969;51.536;11.884;2023-03-29T04:15:46;5.27;;;3.70;;
28834;SDS011;15969;51.536;11.884;2023-03-29T04:18:18;5.13;;;3.27;;
28834;SDS011;15969;51.536;11.884;2023-03-29T04:20:45;7.20;;;3.47;;
28834;SDS011;15969;51.536;11.884;2023-03-29T04:23:11;5.77;;;3.27;;
28834;SDS011;15969;51.536;11.884;2023-03-29T04:25:38;5.80;;;2.73;;
28834;SDS011;15969;51.536;11.884;2023-03-29T04:28:04;5.23;;;2.93;;
28834;SDS011;15969;51.536;11.884;2023-03-29T04:30:30;6.73;;;3.50;;
28834;SDS011;15969;51.536;11.884;2023-03-29T04:32:56;4.07;;;3.17;;
28834;SDS011;15969;51.536;11.884;2023-03-29T04:35:21;6.17;;;3.37;;
28834;SDS011;15969;51.536;11.884;2023-03-29T04:37:47;8.13;;;4.03;;
28834;SDS011;15969;51.536;11.884;2023-03-29T04:40:15;7.30;;;3.80;;
28834;SDS011;15969;51.536;11.884;2023-03-29T04:42:43;5.73;;;3.97;;
28834;SDS011;15969;51.536;11.884;2023-03-29T04:45:11;8.47;;;3.53;;
28834;SDS011;15969;51.536;11.884;2023-03-29T04:47:44;5.87;;;3.33;;
28834;SDS011;15969;51.536;11.884;2023-03-29T04:50:10;7.77;;;3.73;;
28834;SDS011;15969;51.536;11.884;2023-03-29T04:52:37;5.20;;;3.50;;
28834;SDS011;15969;51.536;11.884;2023-03-29T04:55:04;5.80;;;3.17;;
28834;SDS011;15969;51.536;11.884;2023-03-29T04:57:31;6.53;;;3.33;;
28834;SDS011;15969;51.536;11.884;2023-03-29T04:59:56;7.60;;;3.30;;
28834;SDS011;15969;51.536;11.884;2023-03-29T05:02:22;7.77;;;4.00;;
28834;SDS011;15969;51.536;11.884;2023-03-29T05:04:48;5.77;;;3.63;;
28834;SDS011;15969;51.536;11.884;2023-03-29T05:07:14;10.13;;;3.50;;
28834;SDS011;15969;51.536;11.884;2023-03-29T05:09:42;6.07;;;3.00;;
28834;SDS011;15969;51.536;11.884;2023-03-29T05:12:07;6.27;;;3.70;;
28834;SDS011;15969;51.536;11.884;2023-03-29T05:14:33;4.97;;;3.17;;
28834;SDS011;15969;51.536;11.884;2023-03-29T05:16:59;6.20;;;3.47;;
28834;SDS011;15969;51.536;11.884;2023-03-29T05:19:25;8.07;;;3.60;;
28834;SDS011;15969;51.536;11.884;2023-03-29T05:21:51;8.33;;;3.87;;
28834;SDS011;15969;51.536;11.884;2023-03-29T05:24:17;6.97;;;3.90;;
28834;SDS011;15969;51.536;11.884;2023-03-29T05:26:43;6.30;;;3.23;;
28834;SDS011;15969;51.536;11.884;2023-03-29T05:29:11;7.03;;;4.17;;
28834;SDS011;15969;51.536;11.884;2023-03-29T05:31:37;7.73;;;3.47;;
28834;SDS011;15969;51.536;11.884;2023-03-29T05:34:03;5.60;;;3.97;;
28834;SDS011;15969;51.536;11.884;2023-03-29T05:36:29;6.53;;;4.37;;
28834;SDS011;15969;51.536;11.884;2023-03-29T05:38:55;7.33;;;3.73;;
28834;SDS011;15969;51.536;11.884;2023-03-29T05:41:21;6.97;;;3.83;;
28834;SDS011;15969;51.536;11.884;2023-03-29T05:43:48;6.73;;;4.47;;
28834;SDS011;15969;51.536;11.884;2023-03-29T05:46:13;6.30;;;4.10;;
28834;SDS011;15969;51.536;11.884;2023-03-29T05:48:39;8.67;;;4.50;;
28834;SDS011;15969;51.536;11.884;2023-03-29T05:51:05;7.20;;;4.00;;
28834;SDS011;15969;51.536;11.884;2023-03-29T05:53:31;10.67;;;4.53;;
28834;SDS011;15969;51.536;11.884;2023-03-29T05:55:57;11.03;;;5.07;;
28834;SDS011;15969;51.536;11.884;2023-03-29T05:58:23;9.93;;;5.13;;
28834;SDS011;15969;51.536;11.884;2023-03-29T06:00:50;5.50;;;4.63;;
28834;SDS011;15969;51.536;11.884;2023-03-29T06:03:17;6.47;;;4.80;;
28834;SDS011;15969;51.536;11.884;2023-03-29T06:05:54;6.67;;;4.97;;
28834;SDS011;15969;51.536;11.884;2023-03-29T06:08:23;6.23;;;4.40;;
28834;SDS011;15969;51.536;11.884;2023-03-29T06:10:50;13.57;;;4.80;;
28834;SDS011;15969;51.536;11.884;2023-03-29T06:13:21;12.00;;;5.30;;
28834;SDS011;15969;51.536;11.884;2023-03-29T06:15:47;11.50;;;4.93;;
28834;SDS011;15969;51.536;11.884;2023-03-29T06:18:12;6.70;;;4.40;;
28834;SDS011;15969;51.536;11.884;2023-03-29T06:20:39;9.30;;;4.87;;
28834;SDS011;15969;51.536;11.884;2023-03-29T06:23:05;4.83;;;3.80;;
28834;SDS011;15969;51.536;11.884;2023-03-29T06:25:32;8.30;;;4.33;;
28834;SDS011;15969;51.536;11.884;2023-03-29T06:27:59;6.87;;;4.97;;
28834;SDS011;15969;51.536;11.884;2023-03-29T06:30:25;8.27;;;4.80;;
28834;SDS011;15969;51.536;11.884;2023-03-29T06:32:50;10.47;;;5.07;;
28834;SDS011;15969;51.536;11.884;2023-03-29T06:35:16;8.97;;;5.07;;
28834;SDS011;15969;51.536;11.884;2023-03-29T06:37:42;7.33;;;4.47;;
28834;SDS011;15969;51.536;11.884;2023-03-29T06:40:13;8.33;;;4.80;;
28834;SDS011;15969;51.536;11.884;2023-03-29T06:42:45;6.93;;;4.70;;
28834;SDS011;15969;51.536;11.884;2023-03-29T06:45:11;7.23;;;4.53;;
28834;SDS011;15969;51.536;11.884;2023-03-29T06:47:38;7.87;;;4.60;;
28834;SDS011;15969;51.536;11.884;2023-03-29T06:50:04;8.40;;;4.30;;
28834;SDS011;15969;51.536;11.884;2023-03-29T06:52:32;7.10;;;4.13;;
28834;SDS011;15969;51.536;11.884;2023-03-29T06:54:58;7.30;;;4.57;;
28834;SDS011;15969;51.536;11.884;2023-03-29T06:57:26;8.13;;;4.07;;
28834;SDS011;15969;51.536;11.884;2023-03-29T06:59:52;8.17;;;4.87;;
28834;SDS011;15969;51.536;11.884;2023-03-29T07:02:18;6.47;;;4.23;;
28834;SDS011;15969;51.536;11.884;2023-03-29T07:04:43;7.33;;;4.53;;
28834;SDS011;15969;51.536;11.884;2023-03-29T07:07:09;9.63;;;4.53;;
28834;SDS011;15969;51.536;11.884;2023-03-29T07:09:44;5.63;;;4.13;;
28834;SDS011;15969;51.536;11.884;2023-03-29T07:12:34;8.60;;;4.00;;
28834;SDS011;15969;51.536;11.884;2023-03-29T07:15:00;8.40;;;4.83;;
28834;SDS011;15969;51.536;11.884;2023-03-29T07:17:25;7.77;;;4.00;;
28834;SDS011;15969;51.536;11.884;2023-03-29T07:19:51;6.73;;;3.73;;
28834;SDS011;15969;51.536;11.884;2023-03-29T07:22:17;5.33;;;3.93;;
28834;SDS011;15969;51.536;11.884;2023-03-29T07:24:42;6.37;;;3.87;;
28834;SDS011;15969;51.536;11.884;2023-03-29T07:27:08;7.00;;;3.77;;
28834;SDS011;15969;51.536;11.884;2023-03-29T07:29:34;7.07;;;3.97;;
28834;SDS011;15969;51.536;11.884;2023-03-29T07:32:00;5.57;;;3.57;;
28834;SDS011;15969;51.536;11.884;2023-03-29T07:34:25;7.20;;;3.73;;
28834;SDS011;15969;51.536;11.884;2023-03-29T07:36:53;5.73;;;4.07;;
28834;SDS011;15969;51.536;11.884;2023-03-29T07:39:19;8.30;;;3.90;;
28834;SDS011;15969;51.536;11.884;2023-03-29T07:41:46;5.40;;;4.50;;
28834;SDS011;15969;51.536;11.884;2023-03-29T07:44:11;7.43;;;4.13;;
28834;SDS011;15969;51.536;11.884;2023-03-29T07:46:37;5.83;;;4.17;;
28834;SDS011;15969;51.536;11.884;2023-03-29T07:49:03;5.10;;;3.90;;
28834;SDS011;15969;51.536;11.884;2023-03-29T07:51:29;11.07;;;4.23;;
28834;SDS011;15969;51.536;11.884;2023-03-29T07:53:55;8.07;;;4.47;;
28834;SDS011;15969;51.536;11.884;2023-03-29T07:56:21;4.97;;;4.30;;
28834;SDS011;15969;51.536;11.884;2023-03-29T07:58:46;5.50;;;4.50;;
28834;SDS011;15969;51.536;11.884;2023-03-29T08:01:12;13.00;;;4.17;;
28834;SDS011;15969;51.536;11.884;2023-03-29T08:03:39;5.63;;;4.53;;
28834;SDS011;15969;51.536;11.884;2023-03-29T08:06:06;6.40;;;4.33;;
28834;SDS011;15969;51.536;11.884;2023-03-29T08:08:32;5.33;;;4.50;;
28834;SDS011;15969;51.536;11.884;2023-03-29T08:10:58;8.90;;;4.80;;
28834;SDS011;15969;51.536;11.884;2023-03-29T08:13:23;6.97;;;4.20;;
28834;SDS011;15969;51.536;11.884;2023-03-29T08:15:49;6.90;;;4.73;;
28834;SDS011;15969;51.536;11.884;2023-03-29T08:18:15;7.67;;;5.07;;
28834;SDS011;15969;51.536;11.884;2023-03-29T08:20:41;5.30;;;4.13;;
28834;SDS011;15969;51.536;11.884;2023-03-29T08:23:08;6.27;;;4.53;;
28834;SDS011;15969;51.536;11.884;2023-03-29T08:25:34;7.27;;;4.40;;
28834;SDS011;15969;51.536;11.884;2023-03-29T08:28:00;6.20;;;4.27;;
28834;SDS011;15969;51.536;11.884;2023-03-29T08:30:26;5.53;;;4.30;;
28834;SDS011;15969;51.536;11.884;2023-03-29T08:32:52;6.63;;;4.10;;
28834;SDS011;15969;51.536;11.884;2023-03-29T08:35:17;5.77;;;4.13;;
28834;SDS011;15969;51.536;11.884;2023-03-29T08:37:43;4.80;;;4.27;;
28834;SDS011;15969;51.536;11.884;2023-03-29T08:40:18;5.13;;;4.10;;
28834;SDS011;15969;51.536;11.884;2023-03-29T08:42:50;5.83;;;4.40;;
28834;SDS011;15969;51.536;11.884;2023-03-29T08:46:00;5.57;;;4.60;;
28834;SDS011;15969;51.536;11.884;2023-03-29T08:48:43;8.47;;;4.37;;
28834;SDS011;15969;51.536;11.884;2023-03-29T08:51:20;4.63;;;4.23;;
28834;SDS011;15969;51.536;11.884;2023-03-29T08:54:10;6.10;;;4.63;;
28834;SDS011;15969;51.536;11.884;2023-03-29T08:56:43;9.20;;;4.60;;
28834;SDS011;15969;51.536;11.884;2023-03-29T08:59:32;5.93;;;4.77;;
28834;SDS011;15969;51.536;11.884;2023-03-29T09:01:58;5.60;;;4.27;;
28834;SDS011;15969;51.536;11.884;2023-03-29T09:04:30;8.73;;;4.60;;
28834;SDS011;15969;51.536;11.884;2023-03-29T09:07:00;5.53;;;4.97;;
28834;SDS011;15969;51.536;11.884;2023-03-29T09:09:32;5.30;;;4.63;;
28834;SDS011;15969;51.536;11.884;2023-03-29T09:12:02;7.03;;;4.77;;
28834;SDS011;15969;51.536;11.884;2023-03-29T09:14:35;7.13;;;4.60;;
28834;SDS011;15969;51.536;11.884;2023-03-29T09:17:31;5.90;;;4.87;;
28834;SDS011;15969;51.536;11.884;2023-03-29T09:22:59;6.00;;;4.57;;
28834;SDS011;15969;51.536;11.884;2023-03-29T09:25:59;6.40;;;4.30;;
28834;SDS011;15969;51.536;11.884;2023-03-29T09:31:28;5.80;;;4.93;;
28834;SDS011;15969;51.536;11.884;2023-03-29T09:34:05;6.93;;;5.23;;
28834;SDS011;15969;51.536;11.884;2023-03-29T09:36:44;5.80;;;4.57;;
28834;SDS011;15969;51.536;11.884;2023-03-29T09:39:18;6.83;;;4.90;;
28834;SDS011;15969;51.536;11.884;2023-03-29T09:41:49;5.87;;;4.80;;
28834;SDS011;15969;51.536;11.884;2023-03-29T09:44:23;5.33;;;4.70;;
28834;SDS011;15969;51.536;11.884;2023-03-29T09:46:55;7.23;;;4.70;;
28834;SDS011;15969;51.536;11.884;2023-03-29T09:49:27;7.00;;;4.63;;
28834;SDS011;15969;51.536;11.884;2023-03-29T09:52:00;6.80;;;4.90;;
28834;SDS011;15969;51.536;11.884;2023-03-29T09:54:32;6.17;;;4.33;;
28834;SDS011;15969;51.536;11.884;2023-03-29T09:56:58;7.33;;;5.27;;
28834;SDS011;15969;51.536;11.884;2023-03-29T09:59:24;7.40;;;5.40;;
28834;SDS011;15969;51.536;11.884;2023-03-29T10:01:50;5.73;;;5.13;;
28834;SDS011;15969;51.536;11.884;2023-03-29T10:04:16;7.30;;;5.33;;
28834;SDS011;15969;51.536;11.884;2023-03-29T10:06:48;11.13;;;5.40;;
28834;SDS011;15969;51.536;11.884;2023-03-29T10:09:18;8.67;;;5.47;;
28834;SDS011;15969;51.536;11.884;2023-03-29T10:11:51;5.97;;;5.07;;
28834;SDS011;15969;51.536;11.884;2023-03-29T10:14:34;6.57;;;4.97;;
28834;SDS011;15969;51.536;11.884;2023-03-29T10:17:10;6.60;;;5.13;;
28834;SDS011;15969;51.536;11.884;2023-03-29T10:19:49;5.77;;;5.00;;
28834;SDS011;15969;51.536;11.884;2023-03-29T10:22:53;6.70;;;5.20;;
28834;SDS011;15969;51.536;11.884;2023-03-29T10:25:14;6.60;;;5.07;;
28834;SDS011;15969;51.536;11.884;2023-03-29T10:27:42;10.73;;;5.23;;
28834;SDS011;15969;51.536;11.884;2023-03-29T10:30:11;7.40;;;5.77;;
28834;SDS011;15969;51.536;11.884;2023-03-29T10:32:45;5.53;;;4.83;;
28834;SDS011;15969;51.536;11.884;2023-03-29T10:35:19;8.27;;;5.23;;
28834;SDS011;15969;51.536;11.884;2023-03-29T10:37:50;5.63;;;4.63;;
28834;SDS011;15969;51.536;11.884;2023-03-29T10:40:21;6.33;;;4.53;;
28834;SDS011;15969;51.536;11.884;2023-03-29T10:42:57;5.30;;;4.77;;
28834;SDS011;15969;51.536;11.884;2023-03-29T10:45:38;5.57;;;4.80;;
28834;SDS011;15969;51.536;11.884;2023-03-29T10:48:05;6.90;;;4.90;;
28834;SDS011;15969;51.536;11.884;2023-03-29T10:50:34;8.23;;;5.20;;
28834;SDS011;15969;51.536;11.884;2023-03-29T10:53:02;7.20;;;5.10;;
28834;SDS011;15969;51.536;11.884;2023-03-29T10:56:01;6.53;;;4.30;;
28834;SDS011;15969;51.536;11.884;2023-03-29T10:59:04;8.23;;;4.43;;
28834;SDS011;15969;51.536;11.884;2023-03-29T11:02:21;5.47;;;4.60;;
28834;SDS011;15969;51.536;11.884;2023-03-29T11:05:04;6.47;;;4.37;;
28834;SDS011;15969;51.536;11.884;2023-03-29T11:08:00;4.80;;;4.10;;
28834;SDS011;15969;51.536;11.884;2023-03-29T11:17:00;4.97;;;3.83;;
28834;SDS011;15969;51.536;11.884;2023-03-29T11:19:41;7.13;;;4.10;;
28834;SDS011;15969;51.536;11.884;2023-03-29T11:22:19;7.17;;;4.37;;
28834;SDS011;15969;51.536;11.884;2023-03-29T11:25:19;4.43;;;4.03;;
28834;SDS011;15969;51.536;11.884;2023-03-29T11:27:58;4.90;;;4.43;;
28834;SDS011;15969;51.536;11.884;2023-03-29T11:31:19;5.77;;;3.77;;
28834;SDS011;15969;51.536;11.884;2023-03-29T11:36:31;5.57;;;4.03;;
28834;SDS011;15969;51.536;11.884;2023-03-29T11:39:24;5.93;;;4.13;;
28834;SDS011;15969;51.536;11.884;2023-03-29T11:42:18;5.80;;;4.30;;
28834;SDS011;15969;51.536;11.884;2023-03-29T11:44:48;6.57;;;4.07;;
28834;SDS011;15969;51.536;11.884;2023-03-29T11:47:21;7.33;;;4.33;;
28834;SDS011;15969;51.536;11.884;2023-03-29T11:49:53;5.63;;;3.90;;
28834;SDS011;15969;51.536;11.884;2023-03-29T11:52:28;7.67;;;3.87;;
28834;SDS011;15969;51.536;11.884;2023-03-29T11:55:06;6.10;;;3.60;;
28834;SDS011;15969;51.536;11.884;2023-03-29T12:00:30;5.07;;;3.63;;
28834;SDS011;15969;51.536;11.884;2023-03-29T12:06:03;5.83;;;3.13;;
28834;SDS011;15969;51.536;11.884;2023-03-29T12:08:52;5.23;;;3.53;;
28834;SDS011;15969;51.536;11.884;2023-03-29T12:11:27;8.57;;;3.70;;
28834;SDS011;15969;51.536;11.884;2023-03-29T12:14:21;3.90;;;3.47;;
28834;SDS011;15969;51.536;11.884;2023-03-29T12:16:59;4.37;;;3.97;;
28834;SDS011;15969;51.536;11.884;2023-03-29T12:19:30;4.13;;;3.73;;
28834;SDS011;15969;51.536;11.884;2023-03-29T12:22:08;6.23;;;3.70;;
28834;SDS011;15969;51.536;11.884;2023-03-29T12:24:34;5.33;;;3.67;;
28834;SDS011;15969;51.536;11.884;2023-03-29T12:27:14;4.90;;;3.20;;
28834;SDS011;15969;51.536;11.884;2023-03-29T12:39:02;5.43;;;3.87;;
28834;SDS011;15969;51.536;11.884;2023-03-29T12:41:34;5.57;;;3.77;;
28834;SDS011;15969;51.536;11.884;2023-03-29T12:44:01;6.03;;;3.73;;
28834;SDS011;15969;51.536;11.884;2023-03-29T12:46:31;4.40;;;4.00;;
28834;SDS011;15969;51.536;11.884;2023-03-29T12:49:23;10.40;;;4.27;;
28834;SDS011;15969;51.536;11.884;2023-03-29T12:51:50;4.83;;;3.80;;
28834;SDS011;15969;51.536;11.884;2023-03-29T12:54:20;5.77;;;4.17;;
28834;SDS011;15969;51.536;11.884;2023-03-29T12:59:49;5.40;;;3.60;;
28834;SDS011;15969;51.536;11.884;2023-03-29T13:07:11;5.10;;;2.97;;
28834;SDS011;15969;51.536;11.884;2023-03-29T13:10:33;5.23;;;3.10;;
28834;SDS011;15969;51.536;11.884;2023-03-29T13:13:13;3.40;;;2.97;;
28834;SDS011;15969;51.536;11.884;2023-03-29T13:15:42;6.27;;;3.57;;
28834;SDS011;15969;51.536;11.884;2023-03-29T13:18:14;3.70;;;3.27;;
28834;SDS011;15969;51.536;11.884;2023-03-29T13:20:57;3.90;;;3.33;;
28834;SDS011;15969;51.536;11.884;2023-03-29T13:29:44;3.50;;;3.13;;
28834;SDS011;15969;51.536;11.884;2023-03-29T13:32:29;5.03;;;3.03;;
28834;SDS011;15969;51.536;11.884;2023-03-29T13:35:45;5.33;;;3.00;;
28834;SDS011;15969;51.536;11.884;2023-03-29T13:38:25;4.40;;;3.13;;
28834;SDS011;15969;51.536;11.884;2023-03-29T13:41:10;3.90;;;3.30;;
28834;SDS011;15969;51.536;11.884;2023-03-29T13:43:57;5.20;;;3.90;;
28834;SDS011;15969;51.536;11.884;2023-03-29T13:46:33;4.17;;;3.60;;
28834;SDS011;15969;51.536;11.884;2023-03-29T13:55:00;3.03;;;2.80;;
28834;SDS011;15969;51.536;11.884;2023-03-29T13:57:17;7.07;;;2.80;;
28834;SDS011;15969;51.536;11.884;2023-03-29T14:02:39;3.13;;;2.83;;
28834;SDS011;15969;51.536;11.884;2023-03-29T14:05:07;2.77;;;2.50;;
28834;SDS011;15969;51.536;11.884;2023-03-29T14:07:38;3.73;;;3.17;;
28834;SDS011;15969;51.536;11.884;2023-03-29T14:10:14;3.27;;;2.97;;
28834;SDS011;15969;51.536;11.884;2023-03-29T14:12:45;4.67;;;3.07;;
28834;SDS011;15969;51.536;11.884;2023-03-29T14:15:19;3.03;;;2.63;;
28834;SDS011;15969;51.536;11.884;2023-03-29T14:17:51;3.07;;;2.60;;
28834;SDS011;15969;51.536;11.884;2023-03-29T14:20:19;3.87;;;2.33;;
28834;SDS011;15969;51.536;11.884;2023-03-29T14:22:45;3.43;;;2.30;;
28834;SDS011;15969;51.536;11.884;2023-03-29T14:25:17;2.97;;;2.00;;
28834;SDS011;15969;51.536;11.884;2023-03-29T14:27:46;2.43;;;2.23;;
28834;SDS011;15969;51.536;11.884;2023-03-29T14:30:16;2.50;;;1.83;;
28834;SDS011;15969;51.536;11.884;2023-03-29T14:32:49;1.87;;;1.73;;
28834;SDS011;15969;51.536;11.884;2023-03-29T14:35:16;2.80;;;2.00;;
28834;SDS011;15969;51.536;11.884;2023-03-29T14:37:42;3.73;;;2.07;;
28834;SDS011;15969;51.536;11.884;2023-03-29T14:40:13;2.70;;;2.23;;
28834;SDS011;15969;51.536;11.884;2023-03-29T14:42:43;2.97;;;2.60;;
28834;SDS011;15969;51.536;11.884;2023-03-29T14:45:12;5.57;;;2.40;;
28834;SDS011;15969;51.536;11.884;2023-03-29T14:47:40;2.60;;;1.90;;
28834;SDS011;15969;51.536;11.884;2023-03-29T14:50:17;3.27;;;2.30;;
28834;SDS011;15969;51.536;11.884;2023-03-29T14:52:49;3.70;;;2.93;;
28834;SDS011;15969;51.536;11.884;2023-03-29T14:55:15;3.40;;;2.97;;
28834;SDS011;15969;51.536;11.884;2023-03-29T14:57:47;3.87;;;2.87;;
28834;SDS011;15969;51.536;11.884;2023-03-29T15:02:53;4.83;;;2.30;;
28834;SDS011;15969;51.536;11.884;2023-03-29T15:05:36;3.57;;;2.83;;
28834;SDS011;15969;51.536;11.884;2023-03-29T15:08:05;4.20;;;2.10;;
28834;SDS011;15969;51.536;11.884;2023-03-29T15:10:38;5.03;;;2.80;;
28834;SDS011;15969;51.536;11.884;2023-03-29T15:13:05;3.10;;;2.30;;
28834;SDS011;15969;51.536;11.884;2023-03-29T15:15:32;3.73;;;2.30;;
28834;SDS011;15969;51.536;11.884;2023-03-29T15:18:02;2.73;;;2.30;;
28834;SDS011;15969;51.536;11.884;2023-03-29T15:20:35;3.93;;;2.30;;
28834;SDS011;15969;51.536;11.884;2023-03-29T15:23:07;3.20;;;2.50;;
28834;SDS011;15969;51.536;11.884;2023-03-29T15:25:58;2.53;;;2.33;;
28834;SDS011;15969;51.536;11.884;2023-03-29T15:28:49;2.87;;;2.60;;
28834;SDS011;15969;51.536;11.884;2023-03-29T15:31:31;4.73;;;2.40;;
28834;SDS011;15969;51.536;11.884;2023-03-29T15:34:12;2.70;;;2.50;;
28834;SDS011;15969;51.536;11.884;2023-03-29T15:36:52;2.90;;;2.63;;
28834;SDS011;15969;51.536;11.884;2023-03-29T15:39:18;3.77;;;2.57;;
28834;SDS011;15969;51.536;11.884;2023-03-29T15:41:48;4.43;;;2.30;;
28834;SDS011;15969;51.536;11.884;2023-03-29T15:44:16;5.20;;;2.80;;
28834;SDS011;15969;51.536;11.884;2023-03-29T15:46:51;2.50;;;2.30;;
28834;SDS011;15969;51.536;11.884;2023-03-29T15:49:19;2.80;;;2.47;;
28834;SDS011;15969;51.536;11.884;2023-03-29T15:51:45;3.93;;;2.80;;
28834;SDS011;15969;51.536;11.884;2023-03-29T15:54:10;5.50;;;2.80;;
28834;SDS011;15969;51.536;11.884;2023-03-29T15:56:38;3.67;;;2.70;;
28834;SDS011;15969;51.536;11.884;2023-03-29T15:59:16;5.77;;;2.77;;
28834;SDS011;15969;51.536;11.884;2023-03-29T16:01:42;4.20;;;3.00;;